Sundridge, Canada
Current Conditions -  °F | °C
As of 2:00 AM on Friday 28 Nov 2014 (Local Time) from CYYB Reporting Station
Few Clouds Few Clouds  
Wind Chill:   Ceiling: Unl
Heat Index: 10°   Visibility: 9mi
Dew Point:   Wind: 7mph
Humidity: 92%   Direction: 360°N
Pressure: 30.08"   Gusts: NA
Location:  45.77°N, 79.4°W
Report Text: CYYB 280700Z AUTO 36006KT 9SM FEW055 M12/M13 A3008 RMK SLP213
Loading
Personal Weather Stations






























Interactive Weather Map New forecast layout! Learn more

10-Day Weather Forecast

Advertisements
Track Severe Weather on mobile